Saint Inigoes, MD

10:36 AM EDT on May 30, 2015 (GMT -0400)
Webster Naval Outlying Field | | Change Station
CLOSE
Current Station
Airport
Location: St. Inigoes,
Elevation: 20 ft
Nearby Weather Stations

Elev 20 ft 38.15 °N, 76.43 °W | Updated 43 minutes ago

Partly Cloudy
Partly Cloudy
78 °F
Feels Like 78 °F
N
10
Wind Variable Wind from South
Gusts mph

Today
High -- | Low -- °F
--% Chance of Precip.
Yesterday
High -- | Low -- °F
Precip. -- in
5:45 AM 8:21 PM
Waxing Gibbous, 90% visible
Pressure 30.21 in
Visibility 10.0 miles
Clouds
Dew Point 67 °F
Humidity 68%
Rainfall 0.00 in
Snow Depth Not available.
UV Not available.
Pollen 8.90 out of 12
Air Quality Not available.
Flu Activity Sporadic
METAR KNUI 301353Z AUTO 18009KT 10SM 26/19 A3021 RMK AO2 SLP229 T02560194 $

More Conditions Fewer Conditions

Pressure 30.21 in
Visibility 10.0 miles
Clouds
Dew Point 67 °F
Humidity 68%
Rainfall 0.00 in
Snow Depth Not available.
UV Not available.
Pollen 8.90 out of 12
Air Quality Not available.
Flu Activity Sporadic
METAR KNUI 301353Z AUTO 18009KT 10SM 26/19 A3021 RMK AO2 SLP229 T02560194 $

More Conditions Fewer Conditions

10-Day Weather Forecast

Almanac

Astronomy

May. 30, 2015 Rise Set
Actual Time
Civil Twilight
Nautical Twilight
Astronomical Twilight
Moon
Length of Visible Light
Length of Day
Tomorrow will be .
, % of the Moon is Illuminated

Today's Extremes

State Highs State Lows

Community

WunderPhotos

Upload Photos

1,825,523 photos uploaded!

WunderBlogs® & News

Nearby

Air Quality

  Air Quality AQ Index Pollutant
Not available.

Snow Depth

Station Depth Elevation

Earthquake Activity

City Distance Mag. Time & Date
Minimum magnitude displayed is 2.5.

Coastal Water Temperatures

Place Temperature

Stations

Nearby Weather Stations

Station Location Temp. Windchill Dew Point Humidity Wind Precip. Elev Updated Type